Time;durP1;ratioP1;P1;durP2;ratioP2;P2;SDS_P1;SDS_P2;PMS_P1;PMS_P2;Temp;Humidity;BMP_temperature;BMP_pressure;BME280_temperature;BME280_humidity;BME280_pressure;Samples;Min_cycle;Max_cycle;Signal;HPM_P1;HPM_P2
2023/06/27 00:01:24;;;;;;;3.40;1.40;;;;;;;18.61;70.95;102030.88;5015674;28;19913;-76
2023/06/27 00:03:51;;;;;;;3.65;1.75;;;;;;;18.60;70.84;102030.97;5022714;28;20040;-76
2023/06/27 00:06:20;;;;;;;4.18;1.83;;;;;;;18.57;71.22;102033.78;5035484;28;20056;-76
2023/06/27 00:08:49;;;;;;;3.25;1.77;;;;;;;18.56;71.27;102035.59;5032348;28;20284;-76
2023/06/27 00:11:15;;;;;;;2.60;1.38;;;;;;;18.54;71.17;102032.16;5016223;28;20104;-76
2023/06/27 00:13:41;;;;;;;5.43;1.83;;;;;;;18.52;71.19;102026.09;5015349;28;20261;-76
2023/06/27 00:16:12;;;;;;;5.50;1.67;;;;;;;18.50;71.22;102027.97;5015457;28;20054;-76
2023/06/27 00:18:39;;;;;;;4.57;1.88;;;;;;;18.48;71.50;102029.88;4996953;28;20021;-76
2023/06/27 00:21:05;;;;;;;4.97;1.92;;;;;;;18.47;71.44;102025.50;5015692;28;20053;-76
2023/06/27 00:23:33;;;;;;;3.53;1.75;;;;;;;18.45;71.41;102037.97;5015447;28;20044;-76
2023/06/27 00:25:59;;;;;;;4.55;1.73;;;;;;;18.42;71.42;102025.72;5014042;28;20033;-76
2023/06/27 00:28:24;;;;;;;7.57;1.83;;;;;;;18.41;71.76;102031.16;5015567;28;20347;-76
2023/06/27 00:30:50;;;;;;;3.15;1.60;;;;;;;18.37;71.58;102035.75;4997457;28;20026;-76
2023/06/27 00:33:15;;;;;;;2.92;1.50;;;;;;;18.34;71.65;102033.25;5018318;28;20079;-76
2023/06/27 00:35:41;;;;;;;3.30;1.63;;;;;;;18.32;71.47;102037.81;5017501;28;20351;-76
2023/06/27 00:38:06;;;;;;;5.07;1.67;;;;;;;18.28;71.79;102038.91;5034911;28;20388;-76
2023/06/27 00:40:31;;;;;;;2.78;1.52;;;;;;;18.25;71.90;102032.91;4999493;28;20037;-76
2023/06/27 00:42:57;;;;;;;3.67;1.67;;;;;;;18.22;71.90;102032.13;5015021;28;20037;-76
2023/06/27 00:45:23;;;;;;;3.08;1.60;;;;;;;18.20;71.95;102031.34;4997388;28;20029;-76
2023/06/27 00:47:51;;;;;;;3.03;1.52;;;;;;;18.18;72.16;102035.03;5015302;28;20049;-76
2023/06/27 00:50:19;;;;;;;4.28;1.65;;;;;;;18.15;72.00;102032.53;4997696;28;20053;-76
2023/06/27 00:52:45;;;;;;;2.50;1.38;;;;;;;18.14;72.16;102042.31;5015293;28;20354;-76
2023/06/27 00:55:11;;;;;;;2.67;1.73;;;;;;;18.14;72.41;102034.34;5015464;28;20067;-76
2023/06/27 00:57:37;;;;;;;4.93;1.45;;;;;;;18.10;72.36;102032.81;5014876;28;20041;-76
2023/06/27 01:00:03;;;;;;;4.50;1.80;;;;;;;18.10;72.52;102039.88;5015087;28;20084;-76
2023/06/27 01:04:54;;;;;;;2.13;1.38;;;;;;;18.08;72.51;102037.34;5016373;28;20065;-76
2023/06/27 01:07:26;;;;;;;5.65;1.52;;;;;;;18.07;72.68;102034.75;4998957;28;20070;-76
2023/06/27 01:09:55;;;;;;;3.78;1.63;;;;;;;18.05;72.71;102034.00;5010380;28;20080;-76
2023/06/27 01:12:25;;;;;;;5.15;1.45;;;;;;;18.06;72.71;102033.88;5017503;28;20044;-76
2023/06/27 01:14:54;;;;;;;1.90;1.60;;;;;;;18.07;72.84;102034.75;5017607;28;20112;-76
2023/06/27 01:17:21;;;;;;;2.13;1.40;;;;;;;18.07;72.80;102026.81;5018670;28;20033;-76
2023/06/27 01:19:49;;;;;;;4.35;1.67;;;;;;;18.05;72.59;102028.69;5000786;28;20302;-76
2023/06/27 01:22:29;;;;;;;;;;;;;;;18.04;72.83;102030.47;5018936;28;20284;-76
2023/06/27 01:24:55;;;;;;;2.67;1.65;;;;;;;18.03;73.10;102034.91;5018514;28;19913;-76
2023/06/27 01:27:21;;;;;;;3.45;1.83;;;;;;;18.02;73.10;102027.03;5018540;28;20038;-76
2023/06/27 01:29:46;;;;;;;2.00;1.13;;;;;;;18.01;73.48;102030.66;5000558;28;20335;-76
2023/06/27 01:32:22;;;;;;;1.70;1.33;;;;;;;18.01;73.20;102020.03;5018395;28;20361;-76
2023/06/27 01:35:02;;;;;;;3.25;1.55;;;;;;;18.00;73.57;102023.63;5018043;28;20363;-76
2023/06/27 01:37:33;;;;;;;2.00;1.33;;;;;;;18.00;73.37;102023.63;5000525;28;20332;-76
2023/06/27 01:40:08;;;;;;;3.42;1.50;;;;;;;17.98;73.69;102021.03;5017737;28;20065;-76
2023/06/27 01:42:46;;;;;;;2.83;1.33;;;;;;;17.97;73.94;102023.78;5018352;28;20045;-76
2023/06/27 01:45:14;;;;;;;3.40;1.52;;;;;;;17.97;73.83;102024.66;5018093;28;20038;-76
2023/06/27 01:47:42;;;;;;;3.53;1.55;;;;;;;17.96;73.80;102022.06;5018635;28;20085;-76
2023/06/27 01:50:09;;;;;;;2.42;1.52;;;;;;;17.93;74.05;102015.13;5017599;28;20038;-76
2023/06/27 01:52:34;;;;;;;3.25;1.45;;;;;;;17.94;74.33;102022.16;5000624;28;20465;-76
2023/06/27 01:54:59;;;;;;;5.18;1.80;;;;;;;17.94;74.38;102023.97;5017738;28;20053;-76
2023/06/27 01:57:25;;;;;;;4.57;1.90;;;;;;;17.93;74.39;102016.94;5017711;28;20034;-76
2023/06/27 01:59:52;;;;;;;2.67;1.77;;;;;;;17.92;74.56;102021.38;5017724;28;20045;-76
2023/06/27 02:02:18;;;;;;;3.92;1.88;;;;;;;17.91;74.73;102024.09;5000238;28;20228;-76
2023/06/27 02:04:43;;;;;;;4.18;1.90;;;;;;;17.89;74.99;102031.28;5032433;28;20043;-76
2023/06/27 02:07:08;;;;;;;3.80;1.60;;;;;;;17.88;74.86;102025.09;5036757;28;20049;-76
2023/06/27 02:09:34;;;;;;;4.05;1.70;;;;;;;17.87;75.11;102019.91;5028123;28;20104;-76
2023/06/27 02:11:59;;;;;;;3.17;1.55;;;;;;;17.88;75.20;102024.25;5016772;28;20383;-76
2023/06/27 02:14:24;;;;;;;3.70;1.98;;;;;;;17.86;75.31;102020.84;5017660;28;20041;-76
2023/06/27 02:16:50;;;;;;;2.15;1.70;;;;;;;17.86;75.21;102010.25;5017370;28;20041;-76
2023/06/27 02:19:15;;;;;;;3.95;1.75;;;;;;;17.84;75.33;102010.28;5017362;28;20044;-76
2023/06/27 02:21:41;;;;;;;2.47;1.48;;;;;;;17.83;75.55;102013.88;5017509;28;20041;-76
2023/06/27 02:24:06;;;;;;;3.35;1.50;;;;;;;17.82;75.70;102010.38;5016972;28;20087;-76
2023/06/27 02:26:31;;;;;;;3.15;1.58;;;;;;;17.79;75.74;102010.53;5017431;28;20109;-76
2023/06/27 02:28:57;;;;;;;2.67;1.63;;;;;;;17.79;75.89;102007.91;5016925;28;20033;-76
2023/06/27 02:31:22;;;;;;;3.10;1.50;;;;;;;17.78;75.99;102005.31;5017129;28;20041;-76
2023/06/27 02:33:48;;;;;;;2.72;1.50;;;;;;;17.77;76.05;102003.59;5023713;28;20026;-76
2023/06/27 02:36:13;;;;;;;2.85;1.55;;;;;;;17.78;76.01;102000.88;5036775;28;20037;-76
2023/06/27 02:38:38;;;;;;;2.15;1.40;;;;;;;17.77;75.89;101995.66;5034938;28;20041;-76
2023/06/27 02:41:04;;;;;;;2.15;1.60;;;;;;;17.77;75.77;102006.25;5016528;28;20053;-76
2023/06/27 02:43:29;;;;;;;3.70;1.85;;;;;;;17.73;76.15;102004.69;5016823;28;20038;-76
2023/06/27 02:45:55;;;;;;;2.58;1.58;;;;;;;17.72;76.39;102006.50;5017017;28;20029;-76
2023/06/27 02:48:20;;;;;;;4.30;1.60;;;;;;;17.70;76.24;102011.03;5017156;28;20402;-76
2023/06/27 02:50:49;;;;;;;2.28;1.85;;;;;;;17.69;76.25;102003.16;5017130;28;20415;-76
2023/06/27 02:53:15;;;;;;;3.45;1.98;;;;;;;17.68;76.27;102007.56;5017085;28;20091;-76
2023/06/27 02:55:41;;;;;;;5.22;2.30;;;;;;;17.68;76.74;102014.69;5016823;28;20614;-76
2023/06/27 02:58:06;;;;;;;3.50;1.70;;;;;;;17.66;76.36;102012.09;5016444;28;20041;-76
2023/06/27 03:00:31;;;;;;;3.50;1.63;;;;;;;17.64;76.62;102008.69;5016928;28;20061;-76
2023/06/27 03:02:57;;;;;;;3.33;1.80;;;;;;;17.62;76.71;102014.06;5016496;28;20038;-75
2023/06/27 03:05:22;;;;;;;2.50;1.88;;;;;;;17.60;76.81;102010.63;5024689;28;20044;-75
2023/06/27 03:07:48;;;;;;;3.80;1.88;;;;;;;17.59;76.80;102021.31;5016463;28;20056;-75
2023/06/27 03:10:13;;;;;;;5.82;2.20;;;;;;;17.56;76.75;102019.69;5016523;28;20021;-75
2023/06/27 03:12:38;;;;;;;5.72;2.03;;;;;;;17.57;76.90;102024.06;5016521;28;20323;-75
2023/06/27 03:15:04;;;;;;;7.93;2.40;;;;;;;17.56;76.94;102024.97;4998657;28;20253;-75
2023/06/27 03:17:30;;;;;;;3.35;2.05;;;;;;;17.55;76.80;102025.91;5016284;28;20552;-75
2023/06/27 03:19:55;;;;;;;4.20;1.95;;;;;;;17.54;77.09;102021.56;4998503;28;20042;-75
2023/06/27 03:22:21;;;;;;;5.97;2.10;;;;;;;17.52;77.04;102019.91;5016132;28;20056;-75
2023/06/27 03:24:47;;;;;;;4.53;2.13;;;;;;;17.52;77.23;102019.91;5015353;28;20034;-75
2023/06/27 03:27:14;;;;;;;4.40;2.40;;;;;;;17.51;77.15;102021.69;5015963;28;20217;-75
2023/06/27 03:29:39;;;;;;;4.57;2.05;;;;;;;17.49;77.22;102023.56;5016179;28;20034;-75
2023/06/27 03:32:05;;;;;;;4.10;2.20;;;;;;;17.47;77.28;102022.81;5015791;28;20068;-75
2023/06/27 03:34:30;;;;;;;5.55;2.05;;;;;;;17.45;77.52;102024.66;5028805;28;20044;-75
2023/06/27 03:36:56;;;;;;;3.92;2.15;;;;;;;17.43;77.43;102022.09;5017639;28;20033;-75
2023/06/27 03:39:21;;;;;;;5.13;2.33;;;;;;;17.42;77.37;102033.63;5009769;28;20033;-75
2023/06/27 03:41:46;;;;;;;5.07;2.08;;;;;;;17.41;77.53;102025.78;5015649;28;20037;-75
2023/06/27 03:44:12;;;;;;;4.30;2.17;;;;;;;17.39;77.73;102030.25;5015974;28;20034;-75
2023/06/27 03:46:37;;;;;;;4.07;2.45;;;;;;;17.38;77.84;102025.91;5015993;28;20305;-75
2023/06/27 03:49:03;;;;;;;2.92;2.00;;;;;;;17.37;77.73;102026.84;5015654;28;20533;-75
2023/06/27 03:51:28;;;;;;;2.28;1.85;;;;;;;17.35;77.73;102023.41;5015839;28;20370;-75
2023/06/27 03:53:53;;;;;;;4.63;1.83;;;;;;;17.35;77.80;102026.06;4997751;28;20037;-75
2023/06/27 03:56:19;;;;;;;5.35;2.03;;;;;;;17.34;77.83;102027.88;5015666;28;20053;-75
2023/06/27 03:58:45;;;;;;;5.72;2.13;;;;;;;17.34;77.89;102029.66;5015871;28;20080;-76
2023/06/27 04:01:11;;;;;;;4.32;1.77;;;;;;;17.32;77.74;102032.38;5015152;28;20030;-75
2023/06/27 04:03:37;;;;;;;3.50;1.70;;;;;;;17.30;77.89;102030.72;5021214;28;20079;-75
2023/06/27 04:06:02;;;;;;;4.65;2.05;;;;;;;17.30;77.95;102031.59;5035260;28;20053;-75
2023/06/27 04:08:27;;;;;;;4.07;2.45;;;;;;;17.27;78.07;102027.31;5034920;28;20037;-75
2023/06/27 04:10:53;;;;;;;5.10;2.40;;;;;;;17.28;77.83;102033.44;5015579;28;20033;-75
2023/06/27 04:13:18;;;;;;;2.63;1.85;;;;;;;17.27;77.94;102037.91;5015475;28;20034;-75
2023/06/27 04:15:44;;;;;;;3.80;2.00;;;;;;;17.27;78.32;102034.41;5015847;28;20038;-75
2023/06/27 04:18:09;;;;;;;3.83;1.90;;;;;;;17.26;78.05;102044.13;5015243;28;20029;-75
2023/06/27 04:20:35;;;;;;;3.53;2.00;;;;;;;17.24;78.30;102035.38;5015439;28;20041;-75
2023/06/27 04:23:01;;;;;;;5.05;2.50;;;;;;;17.24;78.29;102045.13;5014963;28;20056;-75
2023/06/27 04:25:30;;;;;;;4.25;2.08;;;;;;;17.23;78.19;102046.94;4997694;28;20112;-75
2023/06/27 04:27:55;;;;;;;2.65;1.95;;;;;;;17.25;78.42;102046.84;5015496;28;20026;-75
2023/06/27 04:30:21;;;;;;;3.03;1.90;;;;;;;17.24;78.29;102038.03;5015252;28;20153;-75
2023/06/27 04:32:48;;;;;;;2.53;1.73;;;;;;;17.24;78.43;102045.97;5015012;28;20328;-75
2023/06/27 04:35:17;;;;;;;4.75;2.30;;;;;;;17.24;78.57;102053.91;5033923;28;20044;-75
2023/06/27 04:37:43;;;;;;;5.63;2.50;;;;;;;17.23;78.23;102044.28;5035156;28;20096;-75
2023/06/27 04:40:11;;;;;;;2.25;1.90;;;;;;;17.23;78.36;102052.22;5020139;28;20033;-75
2023/06/27 04:42:37;;;;;;;2.13;1.80;;;;;;;17.23;78.34;102048.72;5015796;28;20324;-75
2023/06/27 04:45:02;;;;;;;2.55;1.95;;;;;;;17.23;78.64;102054.88;5015068;28;20038;-75
2023/06/27 04:47:28;;;;;;;4.28;1.88;;;;;;;17.23;78.64;102054.03;5015471;28;20064;-75
2023/06/27 04:49:53;;;;;;;5.05;1.92;;;;;;;17.21;78.31;102050.59;5014787;28;20262;-75
2023/06/27 04:52:19;;;;;;;4.35;2.15;;;;;;;17.22;78.82;102052.28;5015054;28;20052;-75
2023/06/27 04:54:50;;;;;;;3.47;1.92;;;;;;;17.22;78.83;102044.34;5015608;28;20116;-75
2023/06/27 04:57:16;;;;;;;2.08;1.80;;;;;;;17.23;78.67;102046.09;4997042;28;20041;-75
2023/06/27 04:59:43;;;;;;;4.60;2.40;;;;;;;17.23;78.58;102046.94;5015131;28;20060;-75
2023/06/27 05:02:08;;;;;;;4.43;2.38;;;;;;;17.24;78.51;102053.06;5014691;28;20367;-75
2023/06/27 05:04:34;;;;;;;2.97;1.92;;;;;;;17.25;78.58;102054.81;5010997;28;20017;-75
2023/06/27 05:06:59;;;;;;;5.20;2.00;;;;;;;17.25;78.83;102049.50;5034469;28;20044;-75
2023/06/27 05:09:25;;;;;;;3.30;2.10;;;;;;;17.26;78.99;102054.72;5026127;28;20045;-75
2023/06/27 05:11:50;;;;;;;5.43;2.17;;;;;;;17.27;78.62;102045.00;5014557;28;20040;-75
2023/06/27 05:14:15;;;;;;;5.47;2.40;;;;;;;17.29;78.92;102056.34;5014875;28;20049;-75
2023/06/27 05:16:41;;;;;;;5.00;2.70;;;;;;;17.30;78.81;102054.56;5014848;28;20071;-75
2023/06/27 05:19:06;;;;;;;4.75;2.00;;;;;;;17.32;78.75;102053.56;5014565;28;20069;-75
2023/06/27 05:21:32;;;;;;;3.20;2.00;;;;;;;17.33;78.75;102051.75;5014932;28;20125;-75
2023/06/27 05:23:58;;;;;;;4.15;1.85;;;;;;;17.33;78.78;102052.63;5014468;28;20232;-75
2023/06/27 05:26:24;;;;;;;7.97;2.70;;;;;;;17.33;78.79;102052.63;5014617;28;20368;-75
2023/06/27 05:28:49;;;;;;;8.50;2.35;;;;;;;17.35;78.71;102047.25;5014443;28;20042;-75
2023/06/27 05:31:15;;;;;;;4.25;1.85;;;;;;;17.36;78.65;102046.31;5014613;28;20041;-75
2023/06/27 05:33:40;;;;;;;2.05;1.83;;;;;;;17.36;78.51;102049.81;5020638;28;20064;-75
2023/06/27 05:36:05;;;;;;;3.38;2.05;;;;;;;17.37;78.54;102054.19;5034075;28;20033;-75
2023/06/27 05:38:31;;;;;;;4.70;1.73;;;;;;;17.38;78.49;102053.25;5033110;28;20034;-76
2023/06/27 05:40:56;;;;;;;3.33;1.67;;;;;;;17.39;78.58;102054.97;4996159;28;20025;-76
2023/06/27 05:43:22;;;;;;;2.08;1.20;;;;;;;17.41;78.44;102055.75;5014588;28;20034;-75
2023/06/27 05:45:47;;;;;;;7.40;1.90;;;;;;;17.42;78.50;102057.44;5014092;28;20045;-75
2023/06/27 05:48:13;;;;;;;4.78;2.03;;;;;;;17.44;78.51;102052.94;5016739;28;20037;-75
2023/06/27 05:50:39;;;;;;;2.75;1.65;;;;;;;17.43;78.50;102053.88;5018059;28;20036;-75
2023/06/27 05:53:04;;;;;;;3.58;2.13;;;;;;;17.45;78.36;102052.00;5017862;28;20268;-75
2023/06/27 05:55:30;;;;;;;2.90;1.40;;;;;;;17.48;78.57;102052.78;5018027;28;20092;-75
2023/06/27 05:57:55;;;;;;;2.28;1.20;;;;;;;17.48;78.28;102053.63;5017559;28;20038;-75
2023/06/27 06:00:21;;;;;;;3.38;1.52;;;;;;;17.50;78.27;102054.44;5018168;28;20128;-75
2023/06/27 06:02:47;;;;;;;3.13;1.13;;;;;;;17.51;78.02;102056.13;5017714;28;20113;-75
2023/06/27 06:05:14;;;;;;;2.85;1.50;;;;;;;17.55;78.06;102062.13;5018151;28;20049;-75
2023/06/27 06:07:43;;;;;;;4.75;1.83;;;;;;;17.54;77.58;102068.38;5017789;28;20383;-75
2023/06/27 06:10:10;;;;;;;2.45;1.15;;;;;;;17.54;77.52;102058.63;5017296;28;20061;-75
2023/06/27 06:12:36;;;;;;;1.77;1.20;;;;;;;17.56;77.12;102062.06;5000120;28;20025;-75
2023/06/27 06:15:01;;;;;;;4.25;1.60;;;;;;;17.57;76.99;102070.84;5017404;28;20038;-75
2023/06/27 06:17:27;;;;;;;2.28;1.60;;;;;;;17.56;76.42;102070.00;5014724;28;20408;-75
2023/06/27 06:19:53;;;;;;;4.43;1.80;;;;;;;17.59;76.36;102066.31;5017009;28;20346;-75
2023/06/27 06:22:18;;;;;;;3.38;1.67;;;;;;;17.60;75.71;102073.34;4999597;28;20072;-75
2023/06/27 06:24:43;;;;;;;2.65;1.35;;;;;;;17.61;75.85;102067.13;5017341;28;20033;-75
2023/06/27 06:27:09;;;;;;;2.67;1.40;;;;;;;17.62;75.60;102074.97;5011980;28;20190;-75
2023/06/27 06:29:34;;;;;;;3.53;1.30;;;;;;;17.64;75.65;102072.25;5006868;28;20045;-75
2023/06/27 06:32:00;;;;;;;2.08;1.02;;;;;;;17.66;75.36;102070.38;5002532;28;20034;-75
2023/06/27 06:34:25;;;;;;;6.20;1.40;;;;;;;17.69;75.44;102069.38;4992595;28;20183;-75
2023/06/27 06:36:51;;;;;;;1.30;1.13;;;;;;;17.71;75.38;102072.81;5009126;28;20128;-75
2023/06/27 06:39:16;;;;;;;1.15;0.90;;;;;;;17.73;74.91;102079.72;5009840;28;20034;-75
2023/06/27 06:41:42;;;;;;;0.90;0.90;;;;;;;17.76;74.69;102076.09;5009231;28;20108;-75
2023/06/27 06:44:07;;;;;;;2.30;1.20;;;;;;;17.78;74.63;102083.00;5010413;28;20325;-75
2023/06/27 06:46:34;;;;;;;1.00;0.80;;;;;;;17.80;74.23;102081.13;5007120;28;20032;-76
2023/06/27 06:48:59;;;;;;;0.98;0.80;;;;;;;17.81;74.31;102096.09;5004613;28;20065;-76
2023/06/27 06:51:25;;;;;;;0.73;0.63;;;;;;;17.83;74.14;102093.38;5011325;28;20036;-76
2023/06/27 06:53:50;;;;;;;1.48;0.80;;;;;;;17.86;73.51;102098.53;5005632;28;20034;-76
2023/06/27 06:56:15;;;;;;;0.85;0.70;;;;;;;17.89;73.49;102094.88;5004682;28;20137;-76
2023/06/27 06:58:41;;;;;;;1.92;0.85;;;;;;;17.90;73.22;102086.88;5005389;28;20029;-76
2023/06/27 07:01:06;;;;;;;3.00;1.00;;;;;;;17.92;71.78;102082.34;5002294;28;20180;-76
2023/06/27 07:03:33;;;;;;;1.67;0.88;;;;;;;17.95;71.67;102081.31;5007216;28;20057;-75
2023/06/27 07:05:59;;;;;;;1.17;0.90;;;;;;;17.97;71.39;102087.38;4988290;28;20168;-75
2023/06/27 07:08:24;;;;;;;6.20;0.82;;;;;;;17.99;70.76;102088.16;4987310;28;20345;-77
2023/06/27 07:10:50;;;;;;;3.35;0.75;;;;;;;18.01;70.86;102086.31;4989465;28;20221;-76
2023/06/27 07:13:15;;;;;;;1.38;0.90;;;;;;;18.02;70.30;102085.34;5005082;28;20038;-75
2023/06/27 07:15:41;;;;;;;1.38;0.80;;;;;;;18.02;70.50;102094.16;5016404;28;20037;-75
2023/06/27 07:18:06;;;;;;;1.08;0.70;;;;;;;18.02;70.44;102088.00;5009900;28;20061;-75
2023/06/27 07:20:32;;;;;;;2.08;0.65;;;;;;;18.03;70.28;102093.22;5005615;28;20033;-76
2023/06/27 07:22:57;;;;;;;2.78;0.80;;;;;;;18.02;69.69;102088.00;5008689;28;20037;-76
2023/06/27 07:25:24;;;;;;;2.60;0.90;;;;;;;18.03;69.68;102084.44;5015288;28;20100;-76
2023/06/27 07:27:49;;;;;;;5.35;1.00;;;;;;;18.03;69.23;102093.22;4996301;28;20366;-75
2023/06/27 07:30:15;;;;;;;1.67;1.10;;;;;;;18.04;69.35;102096.72;5007824;28;20037;-75
2023/06/27 07:32:41;;;;;;;1.40;0.77;;;;;;;18.04;68.72;102094.06;5012836;28;20030;-75
2023/06/27 07:35:07;;;;;;;1.42;0.80;;;;;;;18.04;68.92;102091.44;5000304;28;20042;-75
2023/06/27 07:37:32;;;;;;;1.23;0.65;;;;;;;18.06;68.95;102097.50;4995700;28;20261;-75
2023/06/27 07:39:58;;;;;;;2.28;1.00;;;;;;;18.07;68.50;102091.28;5008391;28;20093;-75
2023/06/27 07:42:27;;;;;;;2.05;0.73;;;;;;;18.06;67.13;102097.50;5015133;28;20041;-75
2023/06/27 07:44:52;;;;;;;1.35;0.85;;;;;;;18.06;67.28;102092.19;4985863;28;20132;-76
2023/06/27 07:47:18;;;;;;;1.33;0.70;;;;;;;18.08;67.54;102093.00;4986904;28;20055;-76
2023/06/27 07:49:43;;;;;;;2.10;1.00;;;;;;;18.08;67.50;102092.13;5015570;28;20309;-76
2023/06/27 07:52:12;;;;;;;0.70;0.70;;;;;;;18.10;67.41;102093.78;5014591;28;20042;-76
2023/06/27 07:54:37;;;;;;;;;;;;;;;18.10;67.58;102088.47;5015813;28;20053;-75
2023/06/27 07:57:03;;;;;;;0.60;0.60;;;;;;;18.10;66.81;102083.16;5010237;28;19921;-75
2023/06/27 07:59:29;;;;;;;1.75;0.90;;;;;;;18.10;66.14;102107.03;5009421;28;20076;-75
2023/06/27 08:01:55;;;;;;;3.33;0.80;;;;;;;18.08;65.39;102106.25;5011550;28;20277;-76
2023/06/27 08:04:21;;;;;;;1.85;0.95;;;;;;;18.10;65.49;102098.19;5007480;28;20108;-76
2023/06/27 08:06:46;;;;;;;1.27;0.73;;;;;;;18.11;66.06;102102.56;5007971;28;20053;-76
2023/06/27 08:09:12;;;;;;;4.35;1.33;;;;;;;18.11;64.16;102103.44;5015226;28;20030;-76
2023/06/27 08:11:37;;;;;;;4.05;1.00;;;;;;;18.11;64.05;102108.72;4982902;28;20077;-76
2023/06/27 08:14:02;;;;;;;3.92;0.90;;;;;;;18.12;63.99;102105.16;5013273;28;20080;-76
2023/06/27 08:16:28;;;;;;;2.70;0.82;;;;;;;18.13;64.55;102096.25;5013944;28;20100;-76
2023/06/27 08:18:53;;;;;;;1.98;1.00;;;;;;;18.13;64.71;102093.59;4998089;28;20046;-75
2023/06/27 08:21:20;;;;;;;2.05;0.73;;;;;;;18.14;64.66;102094.47;4986778;28;20030;-75
2023/06/27 08:23:45;;;;;;;1.55;0.77;;;;;;;18.15;64.68;102088.22;5014944;28;20042;-75
2023/06/27 08:26:15;;;;;;;1.00;0.70;;;;;;;18.17;65.00;102094.28;5013918;28;20033;-75
2023/06/27 08:28:40;;;;;;;1.02;0.60;;;;;;;18.17;65.37;102092.50;5016614;28;20075;-76
2023/06/27 08:31:06;;;;;;;1.23;0.70;;;;;;;18.19;65.25;102100.34;4987621;28;20268;-75
2023/06/27 08:33:31;;;;;;;2.22;0.73;;;;;;;18.20;65.49;102094.13;4988142;28;20034;-76
2023/06/27 08:35:56;;;;;;;1.25;0.43;;;;;;;18.20;65.24;102094.97;5005030;28;20101;-75
2023/06/27 08:38:22;;;;;;;1.08;0.60;;;;;;;18.22;65.34;102094.91;5014850;28;20270;-75
2023/06/27 08:40:54;;;;;;;3.60;1.10;;;;;;;18.21;65.21;102096.72;4993884;28;20217;-75
2023/06/27 08:43:19;;;;;;;1.13;0.77;;;;;;;18.22;65.36;102101.06;5014517;28;20021;-75
2023/06/27 08:45:45;;;;;;;2.08;1.17;;;;;;;18.22;65.37;102098.41;5014511;28;20037;-75
2023/06/27 08:48:13;;;;;;;3.60;1.13;;;;;;;18.22;64.97;102098.41;5013612;28;20091;-75
2023/06/27 08:50:42;;;;;;;4.13;1.00;;;;;;;18.22;64.44;102106.34;5014081;28;20362;-76
2023/06/27 08:53:10;;;;;;;2.50;1.20;;;;;;;18.23;65.02;102094.81;5013612;28;20042;-75
2023/06/27 08:55:44;;;;;;;1.10;0.88;;;;;;;18.26;64.57;102103.56;5014198;28;20084;-75
2023/06/27 08:58:14;;;;;;;1.83;0.80;;;;;;;18.26;64.99;102108.84;5018842;28;20037;-75
2023/06/27 09:00:39;;;;;;;9.75;0.90;;;;;;;18.26;64.55;102103.56;5012855;28;20034;-75
2023/06/27 09:03:06;;;;;;;0.60;0.60;;;;;;;18.26;64.86;102100.91;5014907;28;20075;-75
2023/06/27 09:05:33;;;;;;;2.15;0.60;;;;;;;18.27;64.78;102100.81;5019660;28;20536;-75
2023/06/27 09:07:59;;;;;;;0.50;0.50;;;;;;;18.28;64.84;102101.69;5006192;28;20337;-75
2023/06/27 09:10:25;;;;;;;2.13;0.98;;;;;;;18.29;65.05;102109.56;5014494;28;20037;-76
2023/06/27 09:12:53;;;;;;;1.75;0.70;;;;;;;18.30;64.74;102110.41;4996901;28;20037;-75
2023/06/27 09:15:18;;;;;;;4.10;0.90;;;;;;;18.30;65.15;102100.69;5022564;28;20038;-75
2023/06/27 09:17:44;;;;;;;1.25;0.80;;;;;;;18.33;64.50;102104.94;5009286;28;20034;-75
2023/06/27 09:20:11;;;;;;;1.33;0.70;;;;;;;18.34;63.80;102106.69;4996646;28;20057;-75
2023/06/27 09:22:37;;;;;;;1.65;0.60;;;;;;;18.35;64.17;102106.56;5016131;28;20108;-75
2023/06/27 09:25:10;;;;;;;5.55;0.80;;;;;;;18.38;64.10;102110.88;5017457;28;20033;-75
2023/06/27 09:27:37;;;;;;;3.35;0.82;;;;;;;18.37;63.79;102107.38;5018228;28;20217;-75
2023/06/27 09:30:06;;;;;;;4.32;0.90;;;;;;;18.41;63.71;102113.38;5018391;28;20037;-75
2023/06/27 09:32:31;;;;;;;3.40;0.60;;;;;;;18.44;64.02;102113.19;5018583;28;20041;-75
2023/06/27 09:35:00;;;;;;;2.92;0.73;;;;;;;18.46;64.34;102106.00;5029459;28;20210;-75
2023/06/27 09:37:32;;;;;;;6.57;1.35;;;;;;;18.51;64.13;102108.41;4998544;28;20061;-75
2023/06/27 09:39:58;;;;;;;2.10;0.73;;;;;;;18.56;64.24;102107.22;5010805;28;20037;-75
2023/06/27 09:42:24;;;;;;;3.20;0.90;;;;;;;18.60;64.24;102094.63;5000184;28;20227;-75
2023/06/27 09:44:49;;;;;;;8.25;1.00;;;;;;;18.66;63.84;102101.41;5017630;28;20379;-75
2023/06/27 09:47:14;;;;;;;1.15;0.63;;;;;;;18.70;64.07;102100.28;4989299;28;20034;-75
2023/06/27 09:49:43;;;;;;;1.10;0.88;;;;;;;18.73;63.42;102110.75;5014366;28;20034;-75
2023/06/27 09:52:11;;;;;;;4.30;1.10;;;;;;;18.73;62.25;102111.59;4991116;28;20142;-75
2023/06/27 09:54:46;;;;;;;2.45;1.13;;;;;;;18.74;62.75;102110.66;5006205;28;20221;-75
2023/06/27 09:57:13;;;;;;;2.75;0.80;;;;;;;18.77;63.02;102117.59;5023478;28;20113;-75
2023/06/27 09:59:38;;;;;;;1.05;0.50;;;;;;;18.78;63.11;102111.34;4998191;28;20336;-75
2023/06/27 10:02:04;;;;;;;5.90;0.90;;;;;;;18.79;62.95;102116.56;4980590;28;20037;-75
2023/06/27 10:04:29;;;;;;;0.65;0.60;;;;;;;18.81;63.05;102121.84;5009697;28;20037;-75
2023/06/27 10:06:55;;;;;;;2.70;1.15;;;;;;;18.84;62.26;102116.34;5015419;28;20048;-75
2023/06/27 10:09:21;;;;;;;2.20;0.82;;;;;;;18.85;62.59;102120.72;5005644;28;20037;-75
2023/06/27 10:11:47;;;;;;;1.58;0.85;;;;;;;18.89;62.75;102116.94;5016966;28;20097;-75
2023/06/27 10:14:13;;;;;;;2.63;0.90;;;;;;;18.91;63.08;102115.06;5005375;28;20045;-75
2023/06/27 10:16:39;;;;;;;5.28;1.23;;;;;;;18.95;62.13;102107.78;4997914;28;20034;-75
2023/06/27 10:19:05;;;;;;;8.65;0.98;;;;;;;18.98;62.23;102112.94;5000181;28;20041;-75
2023/06/27 10:21:31;;;;;;;1.98;0.77;;;;;;;19.00;61.85;102111.03;5017498;28;20304;-75
2023/06/27 10:24:00;;;;;;;2.63;1.02;;;;;;;19.01;61.51;102110.13;5017440;28;20072;-75
2023/06/27 10:26:26;;;;;;;3.33;1.35;;;;;;;19.04;61.59;102103.75;5017061;28;20038;-75
2023/06/27 10:28:53;;;;;;;0.95;0.68;;;;;;;19.06;62.02;102107.19;5000751;28;20034;-75
2023/06/27 10:31:39;;;;;;;1.10;0.70;;;;;;;19.09;62.00;102104.38;5005173;28;20046;-75
2023/06/27 10:34:05;;;;;;;7.85;1.17;;;;;;;19.12;61.11;102114.81;5011624;28;20037;-75
2023/06/27 10:36:49;;;;;;;3.10;1.33;;;;;;;19.14;61.66;102115.59;5010184;28;20037;-75
2023/06/27 10:39:34;;;;;;;1.30;0.77;;;;;;;19.17;61.64;102126.88;5009605;28;20252;-75
2023/06/27 10:42:03;;;;;;;2.28;1.00;;;;;;;19.20;61.25;102128.50;5009620;28;20322;-75
2023/06/27 10:44:29;;;;;;;2.42;0.93;;;;;;;19.22;61.34;102123.97;5016285;28;20160;-75
2023/06/27 10:47:16;;;;;;;2.78;0.90;;;;;;;19.26;60.98;102120.19;5013518;28;20173;-75
2023/06/27 10:49:46;;;;;;;1.67;0.70;;;;;;;19.28;61.14;102118.31;5015627;28;20029;-75
2023/06/27 10:52:19;;;;;;;4.00;1.30;;;;;;;19.30;60.84;102121.72;5010700;28;20472;-75
2023/06/27 10:54:45;;;;;;;1.13;0.73;;;;;;;19.31;60.79;102118.13;5016985;28;20037;-75
2023/06/27 10:57:18;;;;;;;2.40;1.08;;;;;;;19.33;61.23;102121.53;5015079;28;20106;-75
2023/06/27 10:59:45;;;;;;;0.57;0.57;;;;;;;19.34;61.24;102123.25;5009334;28;20042;-75
2023/06/27 11:02:12;;;;;;;1.67;0.88;;;;;;;19.35;61.15;102118.78;5004007;28;20099;-75
2023/06/27 11:04:42;;;;;;;0.70;0.60;;;;;;;19.36;61.43;102125.84;4990817;28;20033;-75
2023/06/27 11:07:09;;;;;;;2.72;0.60;;;;;;;19.36;61.28;102120.53;5003926;28;20061;-75
2023/06/27 11:09:36;;;;;;;1.83;0.88;;;;;;;19.35;60.28;102130.28;5008136;28;20100;-75
2023/06/27 11:12:14;;;;;;;6.72;1.20;;;;;;;19.38;60.44;102126.59;4989235;28;20320;-75
2023/06/27 11:14:44;;;;;;;2.42;1.00;;;;;;;19.41;59.63;102128.22;5008304;28;20041;-75
2023/06/27 11:17:13;;;;;;;1.38;1.20;;;;;;;19.41;60.14;102122.91;4988958;28;20238;-75
2023/06/27 11:19:40;;;;;;;0.98;0.60;;;;;;;19.43;59.76;102119.22;5009748;28;20034;-75
2023/06/27 11:22:06;;;;;;;1.38;0.80;;;;;;;19.44;60.19;102122.72;5004201;28;20100;-75
2023/06/27 11:24:32;;;;;;;2.78;0.90;;;;;;;19.46;59.34;102115.53;5008710;28;20038;-75
2023/06/27 11:26:59;;;;;;;2.92;1.45;;;;;;;19.46;59.79;102110.22;5010980;28;20065;-75